Time;durP1;ratioP1;P1;durP2;ratioP2;P2;SDS_P1;SDS_P2;PMS_P1;PMS_P2;Temp;Humidity;BMP_temperature;BMP_pressure;BME280_temperature;BME280_humidity;BME280_pressure;Samples;Min_cycle;Max_cycle;Signal;HPM_P1;HPM_P2
2022/09/06 00:00:42;;;;;;;4.72;1.95;;;;;;;12.02;54.38;101331.30;1773983;78;21035;-72
2022/09/06 00:03:08;;;;;;;3.35;1.50;;;;;;;12.00;54.49;101329.39;1784226;79;21089;-74
2022/09/06 00:05:37;;;;;;;4.00;1.55;;;;;;;11.95;54.63;101324.26;1791134;80;21552;-74
2022/09/06 00:08:04;;;;;;;3.58;1.80;;;;;;;11.93;54.82;101326.36;1822749;78;21065;-72
2022/09/06 00:10:32;;;;;;;3.27;1.60;;;;;;;11.91;54.98;101328.49;1789801;79;21034;-73
2022/09/06 00:13:05;;;;;;;4.67;1.62;;;;;;;11.88;55.06;101331.66;1813290;78;21073;-72
2022/09/06 00:15:34;;;;;;;4.05;1.50;;;;;;;11.85;55.16;101332.15;1801759;78;21086;-72
2022/09/06 00:18:02;;;;;;;3.87;1.85;;;;;;;11.81;55.40;101334.18;1778425;80;21603;-73
2022/09/06 00:20:29;;;;;;;3.10;1.60;;;;;;;11.79;55.58;101333.62;1813562;78;21093;-73
2022/09/06 00:22:59;;;;;;;4.10;2.02;;;;;;;11.79;55.69;101333.62;1799954;78;21493;-73
2022/09/06 00:25:26;;;;;;;4.87;2.12;;;;;;;11.77;55.78;101333.86;1825801;78;20956;-73
2022/09/06 00:27:56;;;;;;;4.75;2.00;;;;;;;11.76;55.73;101334.92;1793048;80;20965;-72
2022/09/06 00:30:23;;;;;;;3.67;2.00;;;;;;;11.75;55.64;101338.67;1785689;80;21198;-72
2022/09/06 00:32:51;;;;;;;4.47;2.03;;;;;;;11.72;55.62;101331.13;1689798;77;10000541;-73
2022/09/06 00:35:18;;;;;;;4.17;1.70;;;;;;;11.70;55.58;101335.91;1805826;77;20978;-73
2022/09/06 00:37:45;;;;;;;4.28;1.80;;;;;;;11.66;55.62;101340.12;1787660;80;21002;-74
2022/09/06 00:40:13;;;;;;;5.42;1.90;;;;;;;11.61;55.74;101346.73;1816982;78;22124;-72
2022/09/06 00:42:42;;;;;;;3.62;1.90;;;;;;;11.57;55.84;101341.59;1802999;78;21078;-73
2022/09/06 00:45:12;;;;;;;3.37;1.62;;;;;;;11.53;55.95;101349.83;1806072;78;21006;-73
2022/09/06 00:48:00;;;;;;;3.83;1.80;;;;;;;11.50;56.09;101347.11;1787615;78;21045;-73
2022/09/06 00:50:26;;;;;;;3.70;1.90;;;;;;;11.48;56.20;101353.22;1802523;78;21040;-72
2022/09/06 00:52:53;;;;;;;4.30;1.95;;;;;;;11.46;56.39;101348.66;1787125;78;21804;-73
2022/09/06 00:55:20;;;;;;;6.10;1.90;;;;;;;11.43;56.49;101344.59;1822719;78;21011;-73
2022/09/06 00:57:50;;;;;;;6.00;1.90;;;;;;;11.40;56.55;101346.41;1771546;80;21015;-73
2022/09/06 01:00:17;;;;;;;3.58;2.12;;;;;;;11.39;56.63;101347.48;1817022;78;20998;-73
2022/09/06 01:02:44;;;;;;;5.85;1.85;;;;;;;11.38;56.66;101344.50;1800933;78;21066;-74
2022/09/06 01:05:11;;;;;;;3.62;1.80;;;;;;;11.38;56.68;101347.70;1791292;78;21079;-73
2022/09/06 01:08:04;;;;;;;5.40;1.50;;;;;;;11.39;56.75;101345.33;1781626;80;21611;-73
2022/09/06 01:10:46;;;;;;;4.30;1.70;;;;;;;11.39;56.76;101342.13;1797287;78;21079;-72
2022/09/06 01:13:40;;;;;;;3.62;1.72;;;;;;;11.38;56.92;101345.83;1804433;78;21003;-73
2022/09/06 01:16:46;;;;;;;3.95;2.00;;;;;;;11.38;57.02;101343.69;1767729;80;21379;-73
2022/09/06 01:19:30;;;;;;;5.35;1.92;;;;;;;11.37;57.09;101345.56;1806201;78;21114;-72
2022/09/06 01:22:15;;;;;;;3.58;1.80;;;;;;;11.34;57.07;101339.36;1791036;80;21109;-73
2022/09/06 01:25:12;;;;;;;3.47;1.70;;;;;;;11.32;57.07;101340.64;1786369;78;21108;-73
2022/09/06 01:28:19;;;;;;;5.22;1.90;;;;;;;11.28;57.15;101343.00;1813211;78;21065;-72
2022/09/06 01:30:59;;;;;;;4.50;1.62;;;;;;;11.24;57.27;101340.53;1820047;78;21065;-72
2022/09/06 01:33:50;;;;;;;8.68;2.30;;;;;;;11.20;57.38;101344.21;1815138;78;21525;-74
2022/09/06 01:36:22;;;;;;;5.30;1.77;;;;;;;11.17;57.49;101343.36;1758863;80;21100;-73
2022/09/06 01:38:48;;;;;;;3.33;1.82;;;;;;;11.14;57.56;101344.38;1806966;77;21069;-73
2022/09/06 01:41:15;;;;;;;4.08;1.90;;;;;;;11.12;57.65;101342.45;1812782;78;21097;-73
2022/09/06 01:43:45;;;;;;;4.28;2.00;;;;;;;11.11;57.72;101344.84;1770822;80;21612;-73
2022/09/06 01:46:42;;;;;;;3.83;1.80;;;;;;;11.07;57.84;101347.72;1776061;80;21193;-73
2022/09/06 01:49:50;;;;;;;4.58;2.20;;;;;;;11.05;57.93;101353.30;1811290;78;21623;-72
2022/09/06 01:52:27;;;;;;;4.28;1.90;;;;;;;11.02;58.09;101361.80;1789899;78;21089;-72
2022/09/06 01:55:17;;;;;;;4.65;2.08;;;;;;;11.00;58.23;101363.39;1785516;78;21022;-71
2022/09/06 01:57:58;;;;;;;4.67;1.95;;;;;;;10.99;58.26;101359.09;1793542;78;21099;-72
2022/09/06 02:00:25;;;;;;;7.10;2.45;;;;;;;10.99;58.34;101358.27;1783929;78;21645;-73
2022/09/06 02:03:14;;;;;;;4.03;2.10;;;;;;;10.97;58.40;101356.38;1776067;78;21116;-72
2022/09/06 02:05:50;;;;;;;5.62;2.17;;;;;;;10.95;58.47;101359.80;1800908;78;20990;-73
2022/09/06 02:08:28;;;;;;;4.58;2.27;;;;;;;10.89;58.51;101360.25;1818111;77;21011;-73
2022/09/06 02:11:01;;;;;;;4.83;1.90;;;;;;;10.88;58.58;101367.16;1806138;77;21412;-73
2022/09/06 02:13:38;;;;;;;5.53;1.92;;;;;;;10.87;58.54;101370.36;1817389;77;21174;-74
2022/09/06 02:16:07;;;;;;;3.33;1.80;;;;;;;10.84;58.74;101368.69;1783588;79;21030;-72
2022/09/06 02:18:42;;;;;;;4.40;1.87;;;;;;;10.83;58.98;101374.56;1806885;78;21051;-73
2022/09/06 02:21:10;;;;;;;4.62;2.05;;;;;;;10.80;59.11;101375.04;1798698;78;21133;-72
2022/09/06 02:23:39;;;;;;;5.45;2.12;;;;;;;10.79;59.22;101377.41;1811729;78;21081;-72
2022/09/06 02:26:11;;;;;;;5.30;2.25;;;;;;;10.75;59.37;101377.60;1805640;78;21608;-72
2022/09/06 02:28:38;;;;;;;3.85;2.10;;;;;;;10.73;59.48;101383.20;1812013;78;21088;-72
2022/09/06 02:31:20;;;;;;;4.90;2.00;;;;;;;10.73;59.61;101379.72;1796424;77;21026;-72
2022/09/06 02:33:47;;;;;;;3.83;2.37;;;;;;;10.74;59.75;101380.00;1784760;78;21035;-73
2022/09/06 02:36:14;;;;;;;6.72;1.77;;;;;;;10.74;59.80;101381.33;1805747;78;21744;-73
2022/09/06 02:38:41;;;;;;;5.00;2.47;;;;;;;10.72;59.87;101380.22;1814023;78;21524;-72
2022/09/06 02:41:09;;;;;;;4.75;2.30;;;;;;;10.71;60.02;101379.94;1812484;78;21019;-73
2022/09/06 02:43:36;;;;;;;4.97;2.20;;;;;;;10.68;60.08;101380.94;1814456;78;21146;-73
2022/09/06 02:46:04;;;;;;;4.55;2.77;;;;;;;10.63;60.11;101381.66;1792032;78;21018;-72
2022/09/06 02:48:31;;;;;;;5.42;2.50;;;;;;;10.63;60.12;101374.14;1797111;78;21109;-73
2022/09/06 02:51:03;;;;;;;4.20;2.00;;;;;;;10.62;60.13;101377.88;1793349;78;21149;-73
2022/09/06 02:53:30;;;;;;;4.08;2.50;;;;;;;10.62;60.19;101373.87;1799509;79;20818;-73
2022/09/06 02:55:57;;;;;;;5.00;2.47;;;;;;;10.61;60.27;101380.27;1781180;80;21002;-73
2022/09/06 02:58:24;;;;;;;3.90;2.30;;;;;;;10.61;60.38;101380.27;1800512;78;21653;-72
2022/09/06 03:00:51;;;;;;;5.28;2.40;;;;;;;10.60;60.42;101383.47;1778152;79;21645;-73
2022/09/06 03:03:19;;;;;;;4.62;2.40;;;;;;;10.62;60.39;101381.88;1810247;77;21822;-73
2022/09/06 03:05:48;;;;;;;4.80;2.20;;;;;;;10.62;60.41;101380.55;1809208;77;21125;-73
2022/09/06 03:08:16;;;;;;;4.62;2.30;;;;;;;10.61;60.42;101385.61;1807498;77;21109;-72
2022/09/06 03:10:53;;;;;;;4.75;2.22;;;;;;;10.61;60.47;101385.61;1810084;78;20963;-73
2022/09/06 03:13:21;;;;;;;4.03;2.05;;;;;;;10.59;60.49;101383.69;1806926;78;21034;-73
2022/09/06 03:15:54;;;;;;;3.40;2.05;;;;;;;10.56;60.49;101384.47;1776295;79;21071;-72
2022/09/06 03:18:26;;;;;;;4.28;2.10;;;;;;;10.50;60.44;101385.94;1775477;78;21576;-72
2022/09/06 03:20:53;;;;;;;14.13;3.05;;;;;;;10.47;60.56;101385.87;1810360;78;21101;-73
2022/09/06 03:23:22;;;;;;;4.12;2.30;;;;;;;10.47;60.66;101380.53;1784635;78;21083;-73
2022/09/06 03:25:49;;;;;;;6.28;2.30;;;;;;;10.49;60.64;101385.10;1776755;78;21200;-72
2022/09/06 03:28:17;;;;;;;5.12;2.00;;;;;;;10.51;60.70;101391.56;1806552;78;21217;-72
2022/09/06 03:30:50;;;;;;;4.47;2.15;;;;;;;10.49;60.71;101390.97;1806968;78;21065;-73
2022/09/06 03:33:18;;;;;;;5.20;2.27;;;;;;;10.48;60.67;101392.03;1788251;80;21015;-73
2022/09/06 03:35:55;;;;;;;7.78;2.33;;;;;;;10.50;60.62;101400.09;1813243;78;21069;-73
2022/09/06 03:38:22;;;;;;;3.95;2.15;;;;;;;10.50;60.52;101396.63;1790239;79;21083;-72
2022/09/06 03:40:48;;;;;;;5.25;2.25;;;;;;;10.48;60.46;101401.38;1787101;79;21105;-73
2022/09/06 03:43:16;;;;;;;3.52;1.95;;;;;;;10.46;60.40;101398.11;1783981;80;21189;-73
2022/09/06 03:45:48;;;;;;;5.62;2.55;;;;;;;10.46;60.44;101402.96;1810481;78;21122;-72
2022/09/06 03:48:14;;;;;;;4.20;2.30;;;;;;;10.49;60.46;101403.80;1810030;78;21168;-73
2022/09/06 03:50:45;;;;;;;4.35;2.25;;;;;;;10.52;60.45;101407.33;1823611;77;21011;-73
2022/09/06 03:53:13;;;;;;;3.92;2.08;;;;;;;10.56;60.51;101413.02;1821615;77;21237;-73
2022/09/06 03:55:41;;;;;;;4.40;2.25;;;;;;;10.60;60.59;101414.19;1804544;78;21046;-73
2022/09/06 03:58:08;;;;;;;5.28;2.10;;;;;;;10.63;60.59;101419.56;1810738;77;21007;-72
2022/09/06 04:00:35;;;;;;;6.42;2.37;;;;;;;10.68;60.57;101422.35;1800555;78;21026;-72
2022/09/06 04:03:02;;;;;;;6.40;2.17;;;;;;;10.72;60.47;101419.48;1812113;78;21007;-73
2022/09/06 04:05:29;;;;;;;6.47;2.45;;;;;;;10.79;60.27;101421.50;1790874;80;22121;-73
2022/09/06 04:07:55;;;;;;;7.62;2.37;;;;;;;10.84;60.05;101423.48;1806504;78;21062;-72
2022/09/06 04:10:23;;;;;;;7.20;2.30;;;;;;;10.87;59.77;101429.16;1806814;78;20999;-72
2022/09/06 04:12:49;;;;;;;6.37;2.42;;;;;;;10.92;59.57;101431.91;1776148;78;21056;-75
2022/09/06 04:15:16;;;;;;;9.50;2.50;;;;;;;10.97;59.34;101433.36;1787848;79;21045;-73
2022/09/06 04:17:44;;;;;;;7.60;2.75;;;;;;;11.03;59.14;101432.94;1783432;79;21100;-73
2022/09/06 04:20:12;;;;;;;9.05;2.40;;;;;;;11.09;58.98;101425.81;1813433;78;21517;-72
2022/09/06 04:22:39;;;;;;;7.67;2.95;;;;;;;11.17;58.89;101432.94;1775561;79;21769;-72
2022/09/06 04:25:08;;;;;;;7.92;2.70;;;;;;;11.24;58.65;101431.45;1775483;78;21011;-72
2022/09/06 04:27:35;;;;;;;11.22;2.80;;;;;;;11.33;58.66;101436.70;1804098;78;21074;-72
2022/09/06 04:30:03;;;;;;;8.33;2.75;;;;;;;11.41;58.33;101441.65;1810231;78;21147;-73
2022/09/06 04:32:31;;;;;;;8.13;2.40;;;;;;;11.44;57.93;101447.05;1776572;78;20924;-73
2022/09/06 04:34:58;;;;;;;5.90;2.80;;;;;;;11.45;57.78;101444.16;1778321;78;21123;-73
2022/09/06 04:37:25;;;;;;;7.72;2.20;;;;;;;11.46;57.78;101439.08;1809253;78;21050;-73
2022/09/06 04:39:51;;;;;;;10.40;2.95;;;;;;;11.49;57.70;101439.94;1774784;79;20925;-72
2022/09/06 04:42:18;;;;;;;12.03;3.35;;;;;;;11.50;57.66;101446.90;1777517;78;21544;-73
2022/09/06 04:44:45;;;;;;;11.48;2.92;;;;;;;11.54;57.61;101442.41;1774150;78;21026;-73
2022/09/06 04:47:14;;;;;;;9.73;3.00;;;;;;;11.61;57.67;101441.19;1803056;78;21042;-72
2022/09/06 04:49:41;;;;;;;8.55;2.90;;;;;;;11.71;57.55;101444.56;1775981;79;21071;-73
2022/09/06 04:52:08;;;;;;;9.43;2.83;;;;;;;11.79;57.34;101444.17;1780103;78;21640;-72
2022/09/06 04:54:35;;;;;;;6.30;2.62;;;;;;;11.91;57.28;101445.45;1774030;78;21973;-72
2022/09/06 04:57:01;;;;;;;8.30;2.72;;;;;;;12.02;57.05;101441.08;1806587;78;21035;-72
2022/09/06 04:59:28;;;;;;;12.37;3.22;;;;;;;12.11;56.86;101446.28;1775207;78;21071;-74
2022/09/06 05:01:55;;;;;;;12.10;3.15;;;;;;;12.21;56.68;101442.45;1772714;78;21087;-72
2022/09/06 05:04:21;;;;;;;10.20;3.22;;;;;;;12.34;56.43;101442.09;1808671;78;21101;-71
2022/09/06 05:06:48;;;;;;;6.92;2.50;;;;;;;12.47;55.84;101437.42;1810309;78;21125;-73
2022/09/06 05:09:15;;;;;;;6.03;2.33;;;;;;;12.56;55.58;101436.73;1804230;78;21047;-73
2022/09/06 05:11:42;;;;;;;7.62;2.80;;;;;;;12.70;55.44;101438.55;1784289;78;20968;-72
2022/09/06 05:14:09;;;;;;;7.75;2.62;;;;;;;12.86;55.22;101436.30;1781313;78;21058;-73
2022/09/06 05:16:36;;;;;;;10.55;2.65;;;;;;;13.01;54.11;101437.55;1819391;78;21034;-72
2022/09/06 05:19:03;;;;;;;4.92;2.33;;;;;;;13.11;53.35;101433.10;1801103;78;21115;-73
2022/09/06 05:21:30;;;;;;;9.53;2.40;;;;;;;13.23;53.26;101430.28;1811546;78;22291;-70
2022/09/06 05:23:58;;;;;;;7.15;2.17;;;;;;;13.40;52.48;101437.45;1809890;78;21054;-72
2022/09/06 05:26:25;;;;;;;7.22;2.08;;;;;;;13.52;51.40;101439.42;1815826;78;21716;-71
2022/09/06 05:28:51;;;;;;;5.42;2.15;;;;;;;13.61;51.22;101433.33;1808932;78;21097;-73
2022/09/06 05:31:27;;;;;;;5.60;2.22;;;;;;;13.75;51.03;101431.02;1807655;78;21143;-73
2022/09/06 05:33:54;;;;;;;7.15;2.77;;;;;;;13.87;50.76;101428.17;1811054;78;20988;-73
2022/09/06 05:36:22;;;;;;;6.13;2.27;;;;;;;14.02;50.80;101428.83;1815941;78;21046;-72
2022/09/06 05:38:53;;;;;;;6.55;2.60;;;;;;;14.16;50.52;101427.84;1804674;78;21714;-72
2022/09/06 05:41:21;;;;;;;5.63;2.40;;;;;;;14.30;50.36;101427.11;1783540;78;21530;-73
2022/09/06 05:43:47;;;;;;;13.50;3.27;;;;;;;14.39;50.49;101431.46;1809373;78;21343;-73
2022/09/06 05:46:15;;;;;;;9.13;3.13;;;;;;;14.45;50.23;101417.52;1771377;79;21087;-72
2022/09/06 05:48:42;;;;;;;8.63;3.33;;;;;;;14.52;50.11;101418.92;1782489;78;21127;-73
2022/09/06 05:51:14;;;;;;;8.63;2.70;;;;;;;14.58;50.13;101418.42;1775499;79;21293;-72
2022/09/06 05:53:43;;;;;;;6.58;2.40;;;;;;;14.67;50.22;101420.05;1806603;77;21239;-73
2022/09/06 05:56:11;;;;;;;5.57;2.53;;;;;;;14.78;50.00;101415.00;1805710;77;21873;-72
2022/09/06 05:58:38;;;;;;;6.30;2.30;;;;;;;14.91;50.00;101418.53;1804663;78;21308;-72
2022/09/06 06:01:28;;;;;;;7.00;2.20;;;;;;;15.08;48.98;101411.58;1808501;77;21777;-74
2022/09/06 06:03:59;;;;;;;5.03;2.13;;;;;;;15.27;48.23;101419.96;1788461;80;21298;-72
2022/09/06 06:06:29;;;;;;;6.23;1.80;;;;;;;15.49;47.39;101420.50;1790778;80;21112;-72
2022/09/06 06:08:56;;;;;;;6.43;2.30;;;;;;;15.64;46.42;101424.29;1815627;78;21752;-72
2022/09/06 06:11:23;;;;;;;4.67;2.27;;;;;;;15.68;45.95;101428.89;1801454;78;21275;-72
2022/09/06 06:13:49;;;;;;;9.80;3.10;;;;;;;15.65;46.00;101429.39;1792878;80;21124;-71
2022/09/06 06:16:18;;;;;;;6.43;2.60;;;;;;;15.63;46.28;101430.73;1777523;78;22734;-70
2022/09/06 06:18:45;;;;;;;6.73;2.83;;;;;;;15.62;46.37;101427.78;1810449;78;21289;-72
2022/09/06 06:21:24;;;;;;;9.23;3.30;;;;;;;15.63;46.49;101429.38;1809446;77;21919;-70
2022/09/06 06:23:56;;;;;;;7.57;3.33;;;;;;;15.62;46.68;101429.92;1802593;78;21300;-73
2022/09/06 06:26:25;;;;;;;7.00;3.33;;;;;;;15.60;46.45;101430.75;1817715;78;21315;-73
2022/09/06 06:28:52;;;;;;;7.73;3.60;;;;;;;15.53;47.00;101434.26;1791299;78;21397;-72
2022/09/06 06:31:21;;;;;;;7.73;3.37;;;;;;;15.57;47.50;101432.64;1779669;80;21254;-73
2022/09/06 06:33:47;;;;;;;10.90;4.47;;;;;;;15.68;47.86;101436.97;1799318;78;21366;-70
2022/09/06 06:36:20;;;;;;;12.20;4.00;;;;;;;15.73;47.68;101440.73;1799502;78;21381;-71
2022/09/06 06:38:47;;;;;;;7.60;3.90;;;;;;;15.63;47.92;101438.30;1770989;80;21341;-72
2022/09/06 06:41:16;;;;;;;6.83;4.10;;;;;;;15.60;48.15;101440.18;1795864;78;21128;-71
2022/09/06 06:43:43;;;;;;;9.47;4.20;;;;;;;15.63;48.20;101446.89;1819445;78;21275;-73
2022/09/06 06:46:12;;;;;;;8.07;4.10;;;;;;;15.65;48.14;101444.75;1778276;79;21295;-73
2022/09/06 06:48:40;;;;;;;6.63;3.33;;;;;;;15.61;47.58;101447.72;1779931;78;21253;-72
2022/09/06 06:51:16;;;;;;;6.17;3.00;;;;;;;15.59;46.79;101445.27;1803726;78;21277;-71
2022/09/06 06:53:46;;;;;;;4.73;2.30;;;;;;;15.61;46.39;101439.09;1770079;79;21219;-71
2022/09/06 06:56:18;;;;;;;6.57;2.97;;;;;;;15.67;45.49;101439.40;1807330;78;21598;-71
2022/09/06 06:58:47;;;;;;;5.77;2.73;;;;;;;15.74;44.99;101436.98;1813736;78;21234;-72
2022/09/06 07:01:19;;;;;;;5.67;2.57;;;;;;;15.79;44.95;101436.42;1812279;78;21213;-71
2022/09/06 07:03:46;;;;;;;3.50;2.00;;;;;;;15.81;44.26;101435.62;1807038;78;21920;-72
2022/09/06 07:06:13;;;;;;;3.53;1.47;;;;;;;15.94;44.02;101432.92;1814806;78;21359;-72
2022/09/06 07:08:40;;;;;;;3.13;1.40;;;;;;;16.05;42.16;101438.55;1773172;79;21279;-73
2022/09/06 07:11:09;;;;;;;3.07;1.43;;;;;;;16.20;41.55;101435.58;1808053;78;21277;-72
2022/09/06 07:13:36;;;;;;;4.73;1.77;;;;;;;16.29;40.40;101440.69;1807248;78;21791;-74
2022/09/06 07:16:23;;;;;;;2.00;1.10;;;;;;;16.39;40.82;101436.06;1801723;78;21784;-72
2022/09/06 07:18:51;;;;;;;2.47;0.90;;;;;;;16.62;38.77;101440.58;1807966;78;21265;-71
2022/09/06 07:21:20;;;;;;;2.53;0.93;;;;;;;16.62;38.77;101440.58;1803917;77;21395;-73
2022/09/06 07:23:47;;;;;;;3.10;1.10;;;;;;;16.64;38.48;101435.15;1805251;78;21481;-70
2022/09/06 07:26:15;;;;;;;2.40;1.10;;;;;;;16.71;37.67;101438.09;1786323;79;21538;-70
2022/09/06 07:28:42;;;;;;;3.10;1.00;;;;;;;16.75;37.30;101430.57;1779312;80;21507;-73
2022/09/06 07:31:10;;;;;;;2.03;0.93;;;;;;;16.75;37.30;101430.57;1809182;78;22047;-73
2022/09/06 07:33:37;;;;;;;1.93;0.70;;;;;;;16.78;36.42;101435.41;1783918;79;21506;-73
2022/09/06 07:36:07;;;;;;;4.23;2.20;;;;;;;16.78;36.42;101435.41;1767037;80;21461;-72
2022/09/06 07:38:34;;;;;;;2.57;1.07;;;;;;;16.76;37.13;101425.43;1807105;78;21612;-74
2022/09/06 07:41:07;;;;;;;1.60;0.90;;;;;;;16.76;37.13;101425.43;1768808;80;21716;-74
2022/09/06 07:43:35;;;;;;;2.20;1.13;;;;;;;16.86;37.38;101431.32;1825302;78;21663;-71
2022/09/06 07:46:13;;;;;;;2.17;1.10;;;;;;;16.92;36.91;101433.46;1808025;78;21921;-73
2022/09/06 07:48:41;;;;;;;2.33;0.90;;;;;;;16.92;36.91;101433.46;1777552;79;21671;-72
2022/09/06 07:51:14;;;;;;;2.37;0.83;;;;;;;16.99;36.72;101426.66;1772642;78;21622;-73
2022/09/06 07:53:41;;;;;;;1.90;0.90;;;;;;;17.07;36.61;101424.71;1811350;78;21713;-73
2022/09/06 07:56:10;;;;;;;2.43;1.10;;;;;;;17.11;36.89;101422.28;1774678;79;22093;-71
2022/09/06 07:58:38;;;;;;;2.43;0.80;;;;;;;17.16;36.48;101426.29;1797432;78;22128;-72
2022/09/06 08:01:31;;;;;;;2.07;1.07;;;;;;;17.27;36.34;101418.92;1816449;78;21687;-74
2022/09/06 08:04:07;;;;;;;3.07;1.03;;;;;;;17.31;36.31;101420.00;1814781;77;21833;-73
2022/09/06 08:06:36;;;;;;;1.73;0.90;;;;;;;17.42;36.41;101423.42;1659221;80;10000265;-72
2022/09/06 08:09:05;;;;;;;1.87;0.77;;;;;;;17.51;36.90;101423.09;1823773;78;21077;-71
2022/09/06 08:11:33;;;;;;;1.87;0.90;;;;;;;17.55;35.87;101421.42;1755338;80;21974;-72
2022/09/06 08:14:01;;;;;;;3.63;1.20;;;;;;;17.61;35.91;101423.55;1822129;78;21670;-72
2022/09/06 08:16:28;;;;;;;2.40;1.20;;;;;;;17.67;35.94;101424.58;1805783;78;21763;-72
2022/09/06 08:18:57;;;;;;;4.57;1.50;;;;;;;17.70;36.17;101424.02;1776193;80;21771;-73
2022/09/06 08:21:27;;;;;;;3.87;1.50;;;;;;;17.74;35.28;101420.20;1810759;78;21741;-72
2022/09/06 08:23:56;;;;;;;3.40;1.70;;;;;;;17.69;35.21;101426.98;1778885;80;21770;-72
2022/09/06 08:26:24;;;;;;;4.30;2.10;;;;;;;17.50;35.33;101421.45;1817748;78;21721;-73
2022/09/06 08:29:02;;;;;;;4.13;2.57;;;;;;;17.28;35.64;101414.61;1815649;78;21745;-74
2022/09/06 08:31:30;;;;;;;4.90;2.63;;;;;;;17.10;36.24;101418.75;1817321;78;21690;-73
2022/09/06 08:33:58;;;;;;;3.60;2.17;;;;;;;16.97;37.22;101424.77;1800328;78;21768;-72
2022/09/06 08:36:29;;;;;;;3.40;2.20;;;;;;;16.92;37.29;101416.72;1791059;80;21757;-73
2022/09/06 08:38:58;;;;;;;4.90;3.03;;;;;;;16.87;37.06;101418.89;1788492;78;21746;-72
2022/09/06 08:41:46;;;;;;;7.13;3.57;;;;;;;16.85;37.28;101419.73;1772528;80;21740;-73
2022/09/06 08:44:19;;;;;;;5.00;2.97;;;;;;;16.87;37.28;101412.14;1817429;78;21685;-72
2022/09/06 08:46:56;;;;;;;5.53;3.57;;;;;;;16.86;36.99;101403.79;1810559;78;21708;-71
2022/09/06 08:49:29;;;;;;;4.50;2.90;;;;;;;16.86;36.32;101404.34;1791169;80;22216;-73
2022/09/06 08:52:54;;;;;;;3.87;2.63;;;;;;;16.91;36.42;101398.09;1811468;78;21752;-72
2022/09/06 08:55:42;;;;;;;6.23;3.00;;;;;;;16.94;36.04;101394.30;1802848;78;21631;-74
2022/09/06 08:58:27;;;;;;;5.90;3.27;;;;;;;16.84;35.74;101396.50;1813685;78;23015;-72
2022/09/06 09:01:13;;;;;;;5.43;2.97;;;;;;;16.84;35.74;101396.50;1793290;78;21741;-73
2022/09/06 09:03:39;;;;;;;4.87;2.60;;;;;;;16.82;36.21;101396.00;1810756;78;22136;-73
2022/09/06 09:06:08;;;;;;;6.33;3.30;;;;;;;16.95;36.53;101381.63;1768703;80;21779;-72
2022/09/06 09:08:48;;;;;;;5.57;3.70;;;;;;;17.15;35.90;101381.49;1812757;78;21590;-71
2022/09/06 09:11:18;;;;;;;6.80;4.00;;;;;;;17.38;35.49;101344.06;1784392;80;21815;-73
2022/09/06 09:14:19;;;;;;;5.77;3.23;;;;;;;17.56;34.68;101373.05;1803284;78;21707;-74
2022/09/06 09:16:55;;;;;;;6.37;3.23;;;;;;;17.73;34.50;101375.33;1822264;78;21656;-74
2022/09/06 09:19:21;;;;;;;6.83;3.37;;;;;;;17.79;34.72;101366.92;1819522;78;21983;-71
2022/09/06 09:21:48;;;;;;;6.03;3.53;;;;;;;17.81;34.28;101372.86;1788513;78;21781;-73
2022/09/06 09:24:15;;;;;;;5.80;3.63;;;;;;;17.77;33.46;101369.67;1784328;79;21788;-73
2022/09/06 09:26:50;;;;;;;5.80;3.70;;;;;;;17.64;33.62;101370.30;1800950;78;21799;-74
2022/09/06 09:29:17;;;;;;;7.43;3.67;;;;;;;17.50;33.52;101368.23;1791771;78;22154;-74
2022/09/06 09:31:49;;;;;;;5.73;3.27;;;;;;;17.46;34.11;101369.90;1778480;80;22188;-72
2022/09/06 09:34:36;;;;;;;;;;;;;;;17.41;34.22;101367.26;1782904;80;22323;-72
2022/09/06 09:37:21;;;;;;;5.13;3.00;;;;;;;17.38;34.16;101369.72;1808397;77;20256;-73
2022/09/06 09:39:50;;;;;;;7.50;3.47;;;;;;;17.33;34.88;101373.25;1794742;78;21753;-71
2022/09/06 09:42:30;;;;;;;7.50;4.30;;;;;;;17.34;34.94;101370.28;1808796;78;22302;-71
2022/09/06 09:44:56;;;;;;;8.47;4.60;;;;;;;17.38;34.59;101375.92;1803424;78;21698;-72
2022/09/06 09:47:31;;;;;;;7.10;4.37;;;;;;;17.46;34.98;101368.55;1793050;78;22270;-74
2022/09/06 09:49:58;;;;;;;7.03;4.00;;;;;;;17.57;34.75;101369.26;1803597;77;21750;-73
2022/09/06 09:52:28;;;;;;;6.70;3.73;;;;;;;17.67;33.73;101368.36;1804949;77;21788;-71
2022/09/06 09:55:00;;;;;;;7.03;3.60;;;;;;;17.70;34.22;101370.49;1802788;77;21718;-73
2022/09/06 09:57:31;;;;;;;5.47;3.37;;;;;;;17.76;34.35;101375.59;1812452;78;21814;-72
2022/09/06 10:00:05;;;;;;;6.23;3.40;;;;;;;17.83;33.74;101371.75;1809674;78;21731;-72
2022/09/06 10:02:35;;;;;;;4.70;2.67;;;;;;;17.84;33.89;101368.78;1806167;78;21844;-72
2022/09/06 10:05:16;;;;;;;4.90;2.87;;;;;;;17.88;33.86;101372.52;1785997;80;21679;-72
2022/09/06 10:07:56;;;;;;;6.90;3.10;;;;;;;17.92;33.80;101378.95;1792143;80;22144;-73
2022/09/06 10:10:41;;;;;;;5.10;3.13;;;;;;;17.92;33.43;101374.10;1776514;78;21061;-73
2022/09/06 10:13:29;;;;;;;5.10;3.10;;;;;;;17.91;33.50;101370.59;1775615;79;21732;-71
2022/09/06 10:15:57;;;;;;;5.30;3.30;;;;;;;17.95;33.58;101375.69;1788072;78;21721;-73
2022/09/06 10:18:36;;;;;;;7.10;3.63;;;;;;;18.01;33.77;101367.78;1813273;78;22115;-73
2022/09/06 10:21:09;;;;;;;6.80;3.40;;;;;;;18.04;34.33;101369.91;1793677;80;21458;-73
2022/09/06 10:24:04;;;;;;;5.83;3.80;;;;;;;18.02;34.00;101366.68;1806568;78;21704;-73
2022/09/06 10:26:52;;;;;;;6.70;3.40;;;;;;;18.01;33.41;101366.43;1825928;78;21625;-70
2022/09/06 10:29:36;;;;;;;6.67;3.10;;;;;;;18.03;33.40;101366.96;1802499;78;22260;-71
2022/09/06 10:32:20;;;;;;;7.90;3.77;;;;;;;18.02;33.46;101368.03;1810545;78;21647;-71
2022/09/06 10:35:03;;;;;;;7.23;3.70;;;;;;;17.95;33.43;101355.96;1773088;79;21699;-72
2022/09/06 10:38:02;;;;;;;7.40;3.83;;;;;;;17.80;34.72;101359.61;1785718;79;21651;-72
2022/09/06 10:40:33;;;;;;;7.30;4.50;;;;;;;17.80;34.72;101359.61;1824093;78;21113;-73
2022/09/06 10:43:02;;;;;;;7.90;4.23;;;;;;;17.80;35.25;101356.91;1803664;78;21645;-73
2022/09/06 10:45:50;;;;;;;8.57;4.70;;;;;;;17.85;34.87;101362.83;1803722;77;21802;-73
2022/09/06 10:48:23;;;;;;;7.43;5.03;;;;;;;17.91;34.71;101360.34;1800953;78;21676;-72
2022/09/06 10:51:00;;;;;;;7.13;4.50;;;;;;;17.96;34.63;101361.06;1807710;78;21674;-72
2022/09/06 10:54:12;;;;;;;7.00;4.60;;;;;;;18.08;34.08;101360.68;1772399;79;21694;-73
2022/09/06 10:56:53;;;;;;;5.92;4.08;;;;;;;18.20;33.70;101361.09;1725772;82;21792;-72
2022/09/06 10:59:39;;;;;;;8.57;5.10;;;;;;;18.34;33.37;101361.19;1766465;80;21062;-71
2022/09/06 11:02:47;;;;;;;7.00;4.57;;;;;;;18.46;32.41;101353.47;1748114;81;21761;-73
2022/09/06 11:05:23;;;;;;;7.40;4.40;;;;;;;18.53;32.42;101358.52;1762388;78;21761;-73
2022/09/06 11:08:03;;;;;;;6.13;4.00;;;;;;;18.63;32.18;101350.82;1810162;78;21524;-73
2022/09/06 11:10:33;;;;;;;6.83;4.77;;;;;;;18.67;31.87;101351.28;1783625;79;21135;-69
2022/09/06 11:13:18;;;;;;;7.40;4.67;;;;;;;18.74;32.40;101349.59;1788238;80;21065;-73
2022/09/06 11:16:00;;;;;;;7.20;4.63;;;;;;;18.82;32.30;101344.06;1813809;78;21302;-71
2022/09/06 11:18:47;;;;;;;7.23;4.00;;;;;;;18.86;32.91;101344.56;1813997;78;21042;-73
2022/09/06 11:21:39;;;;;;;6.83;4.37;;;;;;;19.00;32.68;101344.62;1749456;81;21104;-73
2022/09/06 11:24:28;;;;;;;6.72;4.30;;;;;;;19.04;32.29;101344.28;1793437;80;21069;-71
2022/09/06 11:27:37;;;;;;;7.63;4.40;;;;;;;19.02;32.36;101347.02;1796310;78;20944;-72
2022/09/06 11:30:05;;;;;;;7.13;4.40;;;;;;;19.05;32.08;101351.32;1793315;80;21904;-72
2022/09/06 11:32:40;;;;;;;7.53;4.47;;;;;;;19.12;32.21;101342.27;1825659;78;21031;-73
2022/09/06 11:35:09;;;;;;;7.73;4.83;;;;;;;19.22;32.17;101342.66;1793203;80;21058;-72
2022/09/06 11:37:42;;;;;;;9.48;5.87;;;;;;;19.33;32.44;101346.80;1770675;78;20959;-71
2022/09/06 11:40:21;;;;;;;9.10;6.10;;;;;;;19.36;31.92;101341.34;1761965;81;21060;-73
2022/09/06 11:42:54;;;;;;;10.23;7.43;;;;;;;19.24;31.94;101344.50;1793269;80;21176;-73
2022/09/06 11:45:48;;;;;;;10.67;7.20;;;;;;;19.08;31.85;101339.08;1767952;80;21036;-73
2022/09/06 11:48:34;;;;;;;14.23;9.10;;;;;;;19.00;31.93;101337.85;1761136;81;21012;-71
2022/09/06 11:51:11;;;;;;;15.20;10.13;;;;;;;18.87;32.51;101339.39;1761667;81;20948;-70